createdAt,value
2023-05-24T00:02:14.217Z,22.80
2023-05-24T00:04:42.073Z,22.05
2023-05-24T00:07:08.866Z,21.05
2023-05-24T00:09:35.519Z,19.05
2023-05-24T00:12:02.520Z,27.02
2023-05-24T00:14:29.599Z,22.65
2023-05-24T00:16:56.553Z,23.70
2023-05-24T00:19:23.927Z,27.48
2023-05-24T00:21:50.780Z,22.50
2023-05-24T00:24:17.704Z,23.73
2023-05-24T00:26:44.941Z,24.98
2023-05-24T00:29:11.847Z,20.15
2023-05-24T00:31:39.059Z,17.27
2023-05-24T00:34:06.746Z,24.45
2023-05-24T00:36:33.839Z,28.63
2023-05-24T00:39:00.579Z,25.20
2023-05-24T00:41:27.475Z,20.05
2023-05-24T00:43:54.209Z,26.25
2023-05-24T00:46:34.698Z,30.75
2023-05-24T00:49:01.686Z,20.30
2023-05-24T00:51:28.629Z,24.17
2023-05-24T00:53:56.112Z,27.17
2023-05-24T00:56:23.342Z,22.67
2023-05-24T00:58:54.479Z,22.00
2023-05-24T01:01:21.260Z,22.08
2023-05-24T01:03:48.190Z,25.52
2023-05-24T01:06:16.367Z,24.50
2023-05-24T01:08:58.105Z,24.42
2023-05-24T01:11:43.346Z,27.05
2023-05-24T01:14:22.509Z,24.55
2023-05-24T01:16:56.690Z,28.88
2023-05-24T01:19:57.576Z,22.08
2023-05-24T01:22:31.329Z,27.95
2023-05-24T01:25:09.787Z,30.30
2023-05-24T01:27:38.582Z,23.42
2023-05-24T01:30:07.537Z,22.92
2023-05-24T01:32:35.142Z,26.67
2023-05-24T01:35:02.623Z,23.67
2023-05-24T01:37:29.545Z,22.45
2023-05-24T01:39:56.831Z,27.77
2023-05-24T01:42:46.344Z,22.95
2023-05-24T01:45:35.896Z,22.50
2023-05-24T01:48:08.025Z,18.77
2023-05-24T01:50:45.959Z,23.13
2023-05-24T01:53:14.219Z,16.60
2023-05-24T01:55:41.768Z,26.88
2023-05-24T01:58:10.261Z,22.60
2023-05-24T02:00:39.541Z,19.75
2023-05-24T02:03:07.261Z,19.70
2023-05-24T02:05:35.845Z,22.23
2023-05-24T02:08:06.561Z,21.88
2023-05-24T02:10:33.655Z,18.13
2023-05-24T02:13:00.597Z,22.90
2023-05-24T02:15:30.621Z,16.73
2023-05-24T02:17:58.613Z,18.45
2023-05-24T02:20:26.631Z,21.75
2023-05-24T02:22:53.944Z,15.32
2023-05-24T02:25:21.088Z,19.35
2023-05-24T02:27:48.153Z,21.48
2023-05-24T02:30:15.202Z,23.20
2023-05-24T02:32:42.236Z,21.70
2023-05-24T02:35:09.369Z,18.75
2023-05-24T02:37:37.244Z,24.02
2023-05-24T02:40:05.441Z,16.23
2023-05-24T02:42:32.613Z,16.27
2023-05-24T02:45:00.100Z,22.23
2023-05-24T02:47:27.569Z,17.58
2023-05-24T02:49:55.368Z,17.90
2023-05-24T02:52:23.517Z,18.42
2023-05-24T02:54:52.721Z,17.65
2023-05-24T02:57:21.985Z,22.15
2023-05-24T02:59:49.085Z,18.05
2023-05-24T03:02:19.665Z,21.98
2023-05-24T03:04:46.709Z,17.93
2023-05-24T03:07:14.968Z,16.33
2023-05-24T03:09:43.603Z,19.92
2023-05-24T03:12:10.504Z,20.52
2023-05-24T03:14:39.082Z,17.23
2023-05-24T03:17:06.150Z,18.15
2023-05-24T03:19:34.783Z,20.00
2023-05-24T03:22:01.506Z,21.80
2023-05-24T03:24:28.716Z,19.15
2023-05-24T03:26:56.050Z,18.27
2023-05-24T03:29:23.166Z,15.55
2023-05-24T03:31:51.740Z,18.08
2023-05-24T03:34:19.102Z,17.25
2023-05-24T03:36:46.384Z,23.38
2023-05-24T03:39:14.464Z,17.77
2023-05-24T03:42:01.691Z,15.63
2023-05-24T03:44:28.899Z,16.38
2023-05-24T03:46:56.020Z,13.68
2023-05-24T03:49:23.112Z,13.50
2023-05-24T03:51:50.315Z,17.63
2023-05-24T03:54:18.832Z,24.45
2023-05-24T03:56:46.730Z,14.98
2023-05-24T03:59:13.716Z,15.30
2023-05-24T04:01:40.869Z,14.45
2023-05-24T04:04:08.774Z,14.82
2023-05-24T04:06:38.416Z,16.90
2023-05-24T04:09:06.115Z,16.45
2023-05-24T04:11:33.645Z,16.40
2023-05-24T04:14:00.945Z,15.85
2023-05-24T04:16:29.116Z,13.30
2023-05-24T04:18:57.585Z,14.70
2023-05-24T04:21:24.864Z,13.57
2023-05-24T04:23:53.530Z,14.65
2023-05-24T04:26:21.971Z,14.10
2023-05-24T04:28:50.456Z,15.15
2023-05-24T04:31:17.503Z,11.77
2023-05-24T04:33:44.502Z,13.93
2023-05-24T04:36:12.060Z,17.92
2023-05-24T04:38:41.066Z,15.90
2023-05-24T04:41:08.343Z,15.48
2023-05-24T04:43:35.666Z,15.68
2023-05-24T04:46:03.046Z,16.70
2023-05-24T04:48:30.053Z,11.95
2023-05-24T04:50:58.527Z,16.17
2023-05-24T04:53:25.744Z,13.18
2023-05-24T04:55:53.165Z,13.43
2023-05-24T04:58:20.127Z,12.20
2023-05-24T05:00:47.364Z,9.45
2023-05-24T05:03:14.668Z,17.25
2023-05-24T05:05:42.007Z,12.90
2023-05-24T05:08:09.883Z,12.25
2023-05-24T05:10:37.779Z,17.02
2023-05-24T05:13:05.043Z,11.45
2023-05-24T05:15:32.757Z,14.68
2023-05-24T05:18:00.322Z,17.40
2023-05-24T05:20:27.823Z,17.80
2023-05-24T05:22:54.799Z,11.48
2023-05-24T05:25:22.130Z,13.23
2023-05-24T05:27:49.163Z,11.90
2023-05-24T05:30:16.511Z,11.63
2023-05-24T05:32:46.563Z,11.90
2023-05-24T05:35:13.987Z,13.20
2023-05-24T05:37:40.950Z,12.93
2023-05-24T05:40:08.609Z,13.20
2023-05-24T05:42:35.776Z,12.57
2023-05-24T05:45:02.909Z,14.45
2023-05-24T05:47:29.770Z,15.00
2023-05-24T05:49:57.821Z,15.65
2023-05-24T05:52:25.051Z,10.70
2023-05-24T05:54:52.235Z,13.30
2023-05-24T05:57:24.517Z,12.95
2023-05-24T05:59:52.254Z,14.90
2023-05-24T06:02:19.926Z,15.02
2023-05-24T06:04:47.604Z,12.48
2023-05-24T06:07:14.519Z,15.82
2023-05-24T06:09:41.346Z,13.18
2023-05-24T06:12:08.694Z,15.55
2023-05-24T06:14:39.552Z,14.27
2023-05-24T06:17:07.087Z,11.10
2023-05-24T06:19:34.285Z,12.57
2023-05-24T06:22:01.517Z,16.52
2023-05-24T06:24:28.764Z,21.85
2023-05-24T06:26:56.112Z,18.30
2023-05-24T06:29:23.769Z,15.25
2023-05-24T06:31:51.373Z,12.73
2023-05-24T06:34:21.409Z,12.00
2023-05-24T06:36:51.000Z,13.85
2023-05-24T06:39:17.978Z,13.68
2023-05-24T06:41:46.173Z,12.15
2023-05-24T06:44:13.494Z,15.35
2023-05-24T06:46:40.943Z,13.07
2023-05-24T06:49:08.671Z,10.50
2023-05-24T06:51:36.732Z,12.45
2023-05-24T06:54:04.421Z,12.20
2023-05-24T06:56:31.500Z,14.30
2023-05-24T06:58:59.579Z,12.50
2023-05-24T07:01:27.699Z,13.35
2023-05-24T07:03:55.226Z,15.45
2023-05-24T07:06:22.762Z,12.73
2023-05-24T07:08:50.129Z,11.32
2023-05-24T07:11:17.442Z,11.38
2023-05-24T07:13:44.575Z,12.50
2023-05-24T07:16:12.390Z,15.27
2023-05-24T07:18:41.798Z,15.90
2023-05-24T07:21:09.044Z,19.47
2023-05-24T07:23:38.093Z,14.93
2023-05-24T07:26:07.823Z,10.70
2023-05-24T07:28:38.075Z,15.30
2023-05-24T07:31:05.430Z,10.77
2023-05-24T07:33:32.710Z,11.40
2023-05-24T07:36:01.289Z,9.18
2023-05-24T07:38:29.413Z,11.38
2023-05-24T07:41:00.079Z,11.98
2023-05-24T07:43:27.558Z,10.48
2023-05-24T07:45:55.166Z,12.93
2023-05-24T07:48:22.933Z,11.15
2023-05-24T07:50:50.973Z,10.45
2023-05-24T07:53:18.224Z,9.57
2023-05-24T07:55:46.265Z,8.45
2023-05-24T07:58:13.231Z,9.45
2023-05-24T08:00:40.639Z,6.53
2023-05-24T08:03:07.831Z,7.80
2023-05-24T08:05:35.207Z,10.15
2023-05-24T08:08:02.914Z,8.50
2023-05-24T08:10:29.994Z,5.47
2023-05-24T08:12:57.858Z,6.85
2023-05-24T08:15:25.521Z,8.02
2023-05-24T08:17:52.513Z,6.68
2023-05-24T08:20:19.591Z,12.20
2023-05-24T08:22:48.831Z,6.63
2023-05-24T08:25:16.237Z,10.68
2023-05-24T08:27:43.610Z,6.35
2023-05-24T08:30:11.280Z,11.52
2023-05-24T08:32:38.575Z,8.30
2023-05-24T08:35:18.217Z,8.80
2023-05-24T08:40:13.622Z,13.25
2023-05-24T08:42:41.751Z,7.13
2023-05-24T08:45:11.573Z,12.02
2023-05-24T08:47:39.534Z,12.70
2023-05-24T08:50:08.589Z,12.32
2023-05-24T08:52:36.492Z,9.35
2023-05-24T08:55:07.607Z,11.13
2023-05-24T08:57:39.345Z,9.02
2023-05-24T09:00:10.155Z,13.50
2023-05-24T09:02:39.267Z,11.50
2023-05-24T09:05:12.384Z,12.55
2023-05-24T09:07:40.652Z,9.32
2023-05-24T09:10:09.533Z,8.38
2023-05-24T09:12:39.242Z,9.98
2023-05-24T09:15:08.701Z,8.27
2023-05-24T09:17:37.141Z,8.40
2023-05-24T09:20:07.335Z,13.20
2023-05-24T09:22:40.317Z,4.88
2023-05-24T09:25:09.938Z,8.77
2023-05-24T09:27:37.801Z,6.82
2023-05-24T09:30:09.225Z,8.98
2023-05-24T09:32:37.124Z,5.45
2023-05-24T09:35:08.506Z,8.00
2023-05-24T09:37:36.870Z,5.60
2023-05-24T09:40:06.976Z,8.90
2023-05-24T09:45:09.619Z,9.15
2023-05-24T09:47:38.264Z,5.95
2023-05-24T09:50:07.822Z,6.57
2023-05-24T09:52:38.562Z,6.05
2023-05-24T09:55:18.528Z,4.50
2023-05-24T09:57:51.564Z,5.82
2023-05-24T10:00:23.770Z,6.40
2023-05-24T10:03:02.705Z,5.25
2023-05-24T10:05:31.319Z,7.15
2023-05-24T10:07:59.220Z,6.60
2023-05-24T10:10:30.987Z,6.82
2023-05-24T10:13:01.766Z,4.75
2023-05-24T10:15:31.409Z,4.05
2023-05-24T10:18:01.881Z,9.35
2023-05-24T10:20:30.323Z,12.15
2023-05-24T10:23:02.182Z,9.43
2023-05-24T10:25:30.122Z,8.02
2023-05-24T10:28:01.112Z,6.38
2023-05-24T10:30:54.410Z,4.65
2023-05-24T10:33:23.502Z,6.18
2023-05-24T10:35:51.956Z,7.75
2023-05-24T10:38:22.799Z,4.35
2023-05-24T10:40:50.094Z,6.40
2023-05-24T10:43:18.301Z,8.30
2023-05-24T10:45:49.873Z,10.75
2023-05-24T10:48:17.727Z,10.52
2023-05-24T10:50:45.832Z,8.30
2023-05-24T10:53:15.059Z,14.63
2023-05-24T10:56:04.301Z,7.88
2023-05-24T10:58:33.971Z,6.93
2023-05-24T11:01:01.747Z,10.27
2023-05-24T11:03:35.566Z,11.32
2023-05-24T11:06:03.264Z,5.45
2023-05-24T11:08:36.187Z,9.15
2023-05-24T11:11:22.412Z,9.65
2023-05-24T11:13:56.942Z,7.10
2023-05-24T11:16:38.581Z,7.30
2023-05-24T11:19:14.131Z,7.05
2023-05-24T11:21:44.440Z,11.85
2023-05-24T11:24:11.803Z,6.68
2023-05-24T11:26:41.227Z,7.20
2023-05-24T11:29:08.428Z,8.45
2023-05-24T11:31:42.416Z,9.32
2023-05-24T11:34:11.987Z,7.18
2023-05-24T11:36:39.816Z,6.50
2023-05-24T11:39:10.761Z,13.10
2023-05-24T11:41:38.721Z,10.02
2023-05-24T11:44:08.343Z,7.43
2023-05-24T11:46:35.896Z,4.88
2023-05-24T11:49:03.900Z,7.80
2023-05-24T11:51:32.659Z,9.98
2023-05-24T11:54:00.422Z,6.05
2023-05-24T11:56:33.016Z,5.80
2023-05-24T11:59:04.707Z,9.23
2023-05-24T12:01:32.436Z,7.50
2023-05-24T12:03:59.562Z,5.97
2023-05-24T12:06:35.347Z,8.55
2023-05-24T12:09:05.446Z,9.35
2023-05-24T12:11:33.010Z,9.43
2023-05-24T12:14:00.158Z,7.90
2023-05-24T12:16:29.857Z,5.75
2023-05-24T12:19:05.120Z,6.65
2023-05-24T12:21:35.335Z,8.02
2023-05-24T12:24:10.108Z,6.90
2023-05-24T12:26:41.017Z,8.43
2023-05-24T12:29:08.074Z,8.60
2023-05-24T12:31:35.227Z,9.98
2023-05-24T12:34:03.936Z,8.65
2023-05-24T12:36:32.810Z,8.70
2023-05-24T12:39:00.385Z,5.85
2023-05-24T12:41:30.847Z,4.72
2023-05-24T12:43:58.449Z,6.15
2023-05-24T12:46:25.890Z,10.35
2023-05-24T12:48:53.392Z,8.82
2023-05-24T12:51:20.507Z,14.40
2023-05-24T12:53:47.328Z,16.27
2023-05-24T12:56:14.606Z,9.68
2023-05-24T12:58:42.263Z,12.55
2023-05-24T13:01:10.075Z,11.48
2023-05-24T13:03:37.239Z,10.60
2023-05-24T13:06:04.557Z,12.93
2023-05-24T13:08:32.223Z,15.82
2023-05-24T13:10:59.187Z,27.40
2023-05-24T13:13:26.323Z,12.80
2023-05-24T13:15:53.661Z,23.02
2023-05-24T13:18:20.872Z,13.43
2023-05-24T13:20:48.539Z,10.77
2023-05-24T13:23:15.816Z,13.52
2023-05-24T13:25:44.188Z,11.60
2023-05-24T13:28:11.390Z,9.93
2023-05-24T13:30:38.692Z,12.63
2023-05-24T13:33:06.711Z,10.98
2023-05-24T13:35:33.924Z,7.18
2023-05-24T13:38:00.941Z,8.88
2023-05-24T13:40:28.000Z,11.68
2023-05-24T13:42:57.897Z,11.02
2023-05-24T13:45:25.379Z,12.35
2023-05-24T13:47:53.611Z,8.80
2023-05-24T13:50:22.736Z,11.20
2023-05-24T13:52:49.688Z,12.65
2023-05-24T13:55:16.653Z,14.95
2023-05-24T13:57:51.737Z,9.82
2023-05-24T14:00:20.100Z,11.18
2023-05-24T14:02:48.484Z,8.45
2023-05-24T14:05:26.938Z,10.98
2023-05-24T14:07:56.887Z,10.50
2023-05-24T14:10:24.113Z,10.73
2023-05-24T14:13:07.962Z,12.90
2023-05-24T14:15:38.929Z,8.18
2023-05-24T14:18:08.946Z,10.55
2023-05-24T14:20:38.167Z,10.27
2023-05-24T14:23:07.971Z,10.90
2023-05-24T14:25:35.167Z,7.63
2023-05-24T14:28:03.898Z,11.13
2023-05-24T14:30:34.265Z,12.65
2023-05-24T14:35:28.424Z,13.30
2023-05-24T14:37:55.834Z,12.02
2023-05-24T14:40:23.216Z,11.48
2023-05-24T14:42:50.182Z,14.82
2023-05-24T14:45:17.219Z,16.83
2023-05-24T14:47:44.202Z,13.75
2023-05-24T14:50:11.654Z,9.43
2023-05-24T14:52:39.167Z,11.02
2023-05-24T14:55:07.310Z,13.10
2023-05-24T14:57:35.540Z,9.98
2023-05-24T15:00:03.360Z,9.45
2023-05-24T15:02:31.380Z,14.10
2023-05-24T15:04:58.878Z,12.05
2023-05-24T15:07:26.414Z,11.48
2023-05-24T15:09:53.456Z,11.88
2023-05-24T15:12:20.438Z,12.45
2023-05-24T15:14:47.576Z,9.60
2023-05-24T15:17:15.142Z,12.68
2023-05-24T15:19:42.594Z,5.32
2023-05-24T15:22:10.173Z,9.77
2023-05-24T15:24:38.165Z,10.82
2023-05-24T15:27:05.630Z,11.95
2023-05-24T15:29:32.720Z,9.65
2023-05-24T15:32:01.514Z,11.93
2023-05-24T15:34:28.552Z,12.40
2023-05-24T15:36:55.709Z,18.65
2023-05-24T15:39:24.271Z,7.25
2023-05-24T15:41:51.610Z,11.57
2023-05-24T15:44:18.718Z,8.77
2023-05-24T15:46:47.643Z,11.75
2023-05-24T15:49:14.777Z,9.98
2023-05-24T15:54:11.712Z,16.73
2023-05-24T15:56:39.030Z,10.40
2023-05-24T15:59:06.236Z,14.10
2023-05-24T16:01:33.654Z,11.80
2023-05-24T16:04:01.143Z,8.63
2023-05-24T16:06:28.618Z,11.32
2023-05-24T16:08:56.835Z,10.93
2023-05-24T16:11:23.869Z,13.07
2023-05-24T16:13:51.158Z,11.55
2023-05-24T16:16:18.259Z,9.90
2023-05-24T16:18:45.081Z,15.82
2023-05-24T16:21:12.675Z,13.65
2023-05-24T16:23:39.693Z,15.90
2023-05-24T16:26:06.900Z,9.98
2023-05-24T16:28:34.222Z,7.15
2023-05-24T16:31:03.191Z,13.45
2023-05-24T16:33:31.538Z,10.40
2023-05-24T16:36:02.797Z,9.65
2023-05-24T16:38:30.533Z,14.63
2023-05-24T16:40:57.496Z,12.15
2023-05-24T16:43:24.635Z,16.92
2023-05-24T16:45:52.058Z,8.88
2023-05-24T16:48:21.845Z,13.00
2023-05-24T16:50:50.415Z,13.23
2023-05-24T16:53:17.623Z,11.90
2023-05-24T16:55:45.910Z,12.00
2023-05-24T16:58:14.217Z,12.02
2023-05-24T17:00:42.086Z,15.70
2023-05-24T17:03:09.570Z,9.93
2023-05-24T17:05:36.772Z,13.35
2023-05-24T17:08:03.742Z,13.35
2023-05-24T17:10:30.820Z,11.77
2023-05-24T17:12:58.033Z,11.75
2023-05-24T17:15:25.682Z,12.00
2023-05-24T17:17:52.921Z,12.23
2023-05-24T17:20:20.127Z,13.70
2023-05-24T17:22:47.471Z,14.00
2023-05-24T17:25:14.922Z,12.23
2023-05-24T17:27:42.415Z,12.20
2023-05-24T17:30:10.119Z,13.35
2023-05-24T17:32:37.425Z,14.43
2023-05-24T17:35:04.910Z,16.10
2023-05-24T17:37:32.130Z,11.10
2023-05-24T17:40:00.143Z,14.52
2023-05-24T17:42:27.099Z,9.15
2023-05-24T17:44:54.245Z,8.52
2023-05-24T17:47:21.696Z,12.68
2023-05-24T17:49:48.794Z,14.82
2023-05-24T17:52:16.235Z,16.08
2023-05-24T17:54:43.406Z,8.63
2023-05-24T17:57:10.790Z,12.63
2023-05-24T17:59:37.748Z,10.30
2023-05-24T18:02:05.159Z,10.43
2023-05-24T18:04:33.222Z,14.52
2023-05-24T18:07:00.900Z,14.80
2023-05-24T18:09:29.656Z,12.15
2023-05-24T18:11:57.887Z,11.60
2023-05-24T18:14:24.828Z,12.65
2023-05-24T18:16:52.779Z,9.15
2023-05-24T18:19:21.161Z,10.00
2023-05-24T18:21:49.177Z,12.32
2023-05-24T18:24:17.460Z,13.80
2023-05-24T18:26:47.009Z,11.93
2023-05-24T18:29:14.635Z,17.42
2023-05-24T18:31:41.907Z,20.92
2023-05-24T18:34:08.956Z,10.38
2023-05-24T18:36:37.175Z,10.85
2023-05-24T18:39:04.424Z,14.80
2023-05-24T18:41:31.902Z,14.65
2023-05-24T18:43:58.986Z,11.68
2023-05-24T18:46:26.115Z,14.38
2023-05-24T18:48:54.284Z,13.27
2023-05-24T18:51:21.697Z,16.45
2023-05-24T18:53:50.540Z,14.15
2023-05-24T18:56:17.688Z,11.57
2023-05-24T18:58:49.545Z,13.48
2023-05-24T19:01:18.430Z,13.68
2023-05-24T19:03:45.702Z,12.82
2023-05-24T19:06:14.840Z,17.48
2023-05-24T19:08:42.121Z,13.27
2023-05-24T19:11:11.236Z,13.75
2023-05-24T19:13:40.123Z,10.80
2023-05-24T19:16:07.472Z,12.52
2023-05-24T19:18:34.455Z,15.52
2023-05-24T19:21:01.532Z,12.05
2023-05-24T19:23:28.808Z,12.23
2023-05-24T19:25:55.849Z,16.50
2023-05-24T19:28:24.298Z,12.48
2023-05-24T19:30:51.931Z,12.77
2023-05-24T19:33:19.032Z,16.17
2023-05-24T19:35:46.469Z,14.90
2023-05-24T19:38:17.630Z,13.65
2023-05-24T19:40:45.281Z,14.00
2023-05-24T19:43:12.787Z,17.45
2023-05-24T19:45:41.223Z,18.42
2023-05-24T19:48:09.832Z,18.38
2023-05-24T19:50:39.397Z,19.83
2023-05-24T19:53:06.513Z,25.80
2023-05-24T19:55:33.865Z,21.00
2023-05-24T19:58:01.301Z,22.63
2023-05-24T20:00:28.482Z,21.25
2023-05-24T20:02:55.554Z,19.45
2023-05-24T20:05:23.042Z,19.55
2023-05-24T20:07:51.008Z,18.63
2023-05-24T20:10:18.357Z,13.02
2023-05-24T20:12:45.921Z,16.75
2023-05-24T20:15:17.147Z,11.60
2023-05-24T20:17:45.682Z,13.57
2023-05-24T20:20:12.977Z,16.63
2023-05-24T20:22:40.080Z,15.88
2023-05-24T20:25:08.275Z,16.52
2023-05-24T20:27:35.219Z,16.02
2023-05-24T20:30:04.021Z,22.95
2023-05-24T20:32:31.351Z,16.60
2023-05-24T20:34:58.453Z,16.85
2023-05-24T20:37:25.804Z,21.00
2023-05-24T20:39:53.422Z,18.70
2023-05-24T20:42:20.514Z,12.35
2023-05-24T20:44:47.891Z,17.00
2023-05-24T20:47:19.310Z,17.02
2023-05-24T20:49:46.720Z,12.68
2023-05-24T20:52:14.012Z,15.18
2023-05-24T20:54:41.171Z,15.82
2023-05-24T20:57:08.142Z,17.38
2023-05-24T20:59:35.677Z,18.00
2023-05-24T21:02:03.134Z,18.35
2023-05-24T21:04:30.239Z,19.10
2023-05-24T21:06:57.366Z,19.20
2023-05-24T21:09:24.543Z,19.60
2023-05-24T21:11:52.545Z,14.88
2023-05-24T21:14:19.897Z,18.75
2023-05-24T21:16:47.384Z,21.30
2023-05-24T21:19:14.598Z,14.43
2023-05-24T21:21:41.680Z,13.32
2023-05-24T21:24:08.760Z,15.73
2023-05-24T21:26:35.901Z,18.50
2023-05-24T21:29:03.860Z,15.52
2023-05-24T21:31:32.138Z,16.77
2023-05-24T21:33:59.313Z,17.15
2023-05-24T21:36:27.152Z,16.92
2023-05-24T21:38:54.461Z,15.57
2023-05-24T21:41:22.529Z,16.73
2023-05-24T21:43:50.297Z,12.35
2023-05-24T21:46:17.595Z,16.63
2023-05-24T21:48:44.584Z,13.07
2023-05-24T21:51:11.992Z,12.90
2023-05-24T21:53:39.176Z,13.43
2023-05-24T21:56:06.280Z,15.55
2023-05-24T21:58:33.570Z,19.17
2023-05-24T22:01:00.542Z,16.92
2023-05-24T22:03:27.757Z,17.52
2023-05-24T22:05:55.260Z,15.55
2023-05-24T22:08:22.319Z,18.10
2023-05-24T22:10:49.236Z,13.45
2023-05-24T22:13:16.529Z,19.38
2023-05-24T22:15:44.249Z,16.13
2023-05-24T22:18:11.591Z,17.00
2023-05-24T22:20:38.826Z,16.25
2023-05-24T22:23:05.835Z,11.07
2023-05-24T22:25:33.103Z,14.52
2023-05-24T22:28:00.008Z,12.50
2023-05-24T22:30:27.263Z,13.38
2023-05-24T22:32:55.981Z,15.90
2023-05-24T22:35:23.439Z,10.70
2023-05-24T22:37:50.815Z,14.00
2023-05-24T22:40:18.404Z,12.27
2023-05-24T22:42:45.825Z,9.10
2023-05-24T22:45:14.042Z,13.98
2023-05-24T22:47:41.054Z,13.65
2023-05-24T22:50:09.186Z,12.45
2023-05-24T22:52:36.231Z,14.23
2023-05-24T22:55:03.446Z,10.02
2023-05-24T22:57:31.480Z,14.55
2023-05-24T22:59:58.858Z,17.85
2023-05-24T23:02:27.705Z,12.38
2023-05-24T23:04:56.308Z,14.80
2023-05-24T23:07:25.173Z,12.52
2023-05-24T23:09:53.564Z,13.20
2023-05-24T23:12:21.053Z,14.40
2023-05-24T23:14:48.080Z,13.20
2023-05-24T23:17:15.091Z,13.25
2023-05-24T23:19:46.422Z,14.82
2023-05-24T23:22:18.462Z,10.80
2023-05-24T23:24:47.416Z,13.82
2023-05-24T23:27:15.242Z,14.32
2023-05-24T23:29:43.542Z,17.92
2023-05-24T23:32:10.710Z,11.00
2023-05-24T23:34:38.066Z,14.10
2023-05-24T23:37:05.917Z,10.45
2023-05-24T23:39:32.952Z,10.63
2023-05-24T23:42:00.034Z,13.02
2023-05-24T23:44:27.381Z,12.85
2023-05-24T23:46:54.428Z,9.80
2023-05-24T23:49:21.549Z,12.18
2023-05-24T23:51:48.968Z,11.85
2023-05-24T23:54:16.382Z,10.43
2023-05-24T23:56:43.264Z,9.50
2023-05-24T23:59:10.688Z,12.13
